Time;durP1;ratioP1;P1;durP2;ratioP2;P2;SDS_P1;SDS_P2;PMS_P1;PMS_P2;Temp;Humidity;BMP_temperature;BMP_pressure;BME280_temperature;BME280_humidity;BME280_pressure;Samples;Min_cycle;Max_cycle;Signal;HPM_P1;HPM_P2
2022/01/06 00:00:32;;;;;;;20.77;3.97;;;;;;;3.11;98.67;101553.44;5117701;28;20035;-36
2022/01/06 00:02:57;;;;;;;14.15;2.80;;;;;;;3.00;98.14;101537.72;5117110;28;20019;-36
2022/01/06 00:05:23;;;;;;;24.52;4.43;;;;;;;3.08;98.67;101554.63;5117042;28;20081;-36
2022/01/06 00:07:48;;;;;;;20.15;4.50;;;;;;;3.07;98.58;101560.97;5116895;28;20028;-36
2022/01/06 00:10:15;;;;;;;14.83;3.80;;;;;;;3.06;98.28;101567.28;5117304;28;20042;-36
2022/01/06 00:13:03;;;;;;;14.38;3.00;;;;;;;3.03;98.43;101572.16;5117430;28;20038;-36
2022/01/06 00:15:36;;;;;;;12.80;2.95;;;;;;;3.02;98.40;101568.59;5117228;28;20103;-36
2022/01/06 00:23:26;;;;;;;12.97;3.17;;;;;;;2.88;98.12;101563.06;5117649;28;20092;-36
2022/01/06 00:25:52;;;;;;;21.00;4.63;;;;;;;2.92;98.75;101570.59;5117300;28;20038;-36
2022/01/06 00:28:19;;;;;;;15.07;3.47;;;;;;;2.93;98.91;101579.44;5117027;28;20024;-36
2022/01/06 00:30:44;;;;;;;15.95;2.97;;;;;;;2.93;98.83;101577.63;5116540;28;20031;-36
2022/01/06 00:33:10;;;;;;;13.43;3.40;;;;;;;2.92;98.72;101591.13;5117059;28;20035;-36
2022/01/06 00:35:37;;;;;;;21.05;3.65;;;;;;;2.91;99.16;101584.13;5116512;28;20031;-36
2022/01/06 00:38:05;;;;;;;18.90;3.38;;;;;;;2.69;99.51;101558.84;5116842;28;20031;-36
2022/01/06 00:40:30;;;;;;;18.60;3.17;;;;;;;2.83;98.90;101593.81;5116750;28;20055;-36
2022/01/06 00:42:55;;;;;;;11.50;2.60;;;;;;;2.77;98.70;101588.25;5116342;28;20107;-36
2022/01/06 00:45:21;;;;;;;17.90;3.20;;;;;;;2.83;98.98;101599.13;5117475;28;20024;-36
2022/01/06 00:47:46;;;;;;;15.47;3.73;;;;;;;2.70;98.85;101579.22;5116597;28;20031;-36
2022/01/06 00:50:11;;;;;;;14.37;3.20;;;;;;;2.78;98.93;101600.59;5116585;28;20055;-36
2022/01/06 00:52:37;;;;;;;15.23;3.23;;;;;;;2.78;98.98;101604.13;5116806;28;20081;-36
2022/01/06 00:55:04;;;;;;;16.25;3.30;;;;;;;2.63;99.06;101587.03;5116831;28;20442;-36
2022/01/06 00:57:29;;;;;;;;;;;;;;;2.77;98.86;101604.28;5116749;28;20024;-36
2022/01/06 00:59:54;;;;;;;15.80;2.95;;;;;;;2.61;99.34;101589.03;5116412;28;20371;-36
2022/01/06 01:02:19;;;;;;;17.93;2.97;;;;;;;2.70;99.41;101603.25;5116319;28;20028;-36
2022/01/06 01:04:45;;;;;;;21.47;4.57;;;;;;;2.69;99.27;101604.25;5116717;28;20023;-36
2022/01/06 01:07:10;;;;;;;13.30;3.37;;;;;;;2.69;99.20;101599.75;5116181;28;20115;-36
2022/01/06 01:09:35;;;;;;;21.17;4.40;;;;;;;2.47;99.26;101561.09;5116092;28;20103;-36
2022/01/06 01:12:03;;;;;;;19.47;3.53;;;;;;;2.69;99.00;101602.41;5116061;28;20036;-36
2022/01/06 01:14:32;;;;;;;17.85;3.55;;;;;;;2.57;98.81;101585.84;5116224;28;20092;-36
2022/01/06 01:17:01;;;;;;;17.70;3.28;;;;;;;2.51;98.50;101577.63;5115717;28;20093;-36
2022/01/06 01:19:28;;;;;;;13.18;3.72;;;;;;;2.64;98.42;101595.91;5116772;28;20352;-36
2022/01/06 01:21:54;;;;;;;15.25;3.65;;;;;;;2.56;98.94;101600.19;5115856;28;20085;-36
2022/01/06 01:24:20;;;;;;;15.45;3.58;;;;;;;2.56;99.05;101608.19;5115977;28;20027;-36
2022/01/06 01:26:45;;;;;;;15.15;3.55;;;;;;;2.54;99.25;101604.88;5116082;28;20344;-36
2022/01/06 01:29:17;;;;;;;16.10;3.40;;;;;;;2.51;99.12;101604.34;5115870;28;20085;-36
2022/01/06 01:31:50;;;;;;;19.48;4.82;;;;;;;2.28;99.20;101583.53;5115781;28;20024;-36
2022/01/06 01:34:23;;;;;;;17.80;3.40;;;;;;;2.44;99.67;101612.16;5116467;28;20042;-36
2022/01/06 01:36:48;;;;;;;17.60;4.10;;;;;;;2.41;99.38;101619.63;5115633;28;20024;-36
2022/01/06 01:39:13;;;;;;;11.57;4.03;;;;;;;2.30;99.85;101602.06;5116293;28;20053;-36
2022/01/06 01:41:39;;;;;;;17.10;4.27;;;;;;;2.24;99.75;101614.19;5115415;28;20023;-36
2022/01/06 01:44:12;;;;;;;19.40;4.77;;;;;;;2.29;99.64;101622.59;5115984;28;20028;-36
2022/01/06 01:46:43;;;;;;;19.45;4.70;;;;;;;2.31;100.00;101633.94;5115311;28;20028;-36
2022/01/06 01:51:41;;;;;;;15.80;3.80;;;;;;;2.28;100.00;101646.75;5115491;28;20062;-36
2022/01/06 01:54:07;;;;;;;11.07;3.20;;;;;;;2.31;100.00;101651.78;5115711;28;20050;-36
2022/01/06 01:56:32;;;;;;;17.17;3.53;;;;;;;2.33;100.00;101653.28;5115381;28;20463;-36
2022/01/06 01:58:57;;;;;;;18.03;5.10;;;;;;;2.27;100.00;101656.59;5115428;28;20023;-36
2022/01/06 02:01:23;;;;;;;15.13;3.17;;;;;;;2.27;100.00;101663.75;5096836;28;20123;-36
2022/01/06 02:03:48;;;;;;;17.70;3.30;;;;;;;2.32;100.00;101669.47;5115057;28;20506;-36
2022/01/06 02:06:13;;;;;;;16.83;3.13;;;;;;;2.24;100.00;101674.72;5115249;28;20031;-36
2022/01/06 02:08:39;;;;;;;11.30;3.00;;;;;;;2.15;100.00;101673.00;5115308;28;20068;-36
2022/01/06 02:11:04;;;;;;;17.97;3.70;;;;;;;2.14;100.00;101671.31;5115105;28;20059;-36
2022/01/06 02:13:30;;;;;;;14.60;3.40;;;;;;;2.10;100.00;101676.16;5115104;28;20019;-36
2022/01/06 02:15:59;;;;;;;17.75;4.68;;;;;;;2.04;100.00;101674.91;5115610;28;20081;-36
2022/01/06 02:18:25;;;;;;;13.57;3.17;;;;;;;2.16;100.00;101678.19;5114245;28;20135;-36
2022/01/06 02:20:50;;;;;;;18.30;4.22;;;;;;;1.90;100.00;101674.63;5115782;28;20036;-36
2022/01/06 02:23:17;;;;;;;18.53;4.10;;;;;;;2.06;100.00;101685.47;5114903;28;20026;-36
2022/01/06 02:25:43;;;;;;;17.55;3.40;;;;;;;1.96;100.00;101684.72;5115408;28;20028;-36
2022/01/06 02:28:08;;;;;;;17.60;3.83;;;;;;;1.97;100.00;101678.38;5114712;28;20073;-36
2022/01/06 02:30:34;;;;;;;23.53;3.97;;;;;;;2.02;100.00;101684.09;5114427;28;20745;-36
2022/01/06 02:33:01;;;;;;;18.23;3.92;;;;;;;1.99;100.00;101676.38;5114923;28;20039;-36
2022/01/06 02:35:28;;;;;;;17.05;3.10;;;;;;;1.96;100.00;101680.22;5114659;28;20456;-36
2022/01/06 02:37:54;;;;;;;15.50;3.03;;;;;;;2.01;100.00;101688.59;5114562;28;20501;-36
2022/01/06 02:40:21;;;;;;;;;;;;;;;2.04;100.00;101698.94;5115286;28;20090;-36
2022/01/06 02:42:51;;;;;;;20.27;3.50;;;;;;;1.95;100.00;101696.34;5114637;28;19953;-36
2022/01/06 02:45:18;;;;;;;16.30;3.70;;;;;;;2.05;100.00;101694.47;5114711;28;20059;-36
2022/01/06 02:47:45;;;;;;;10.95;3.42;;;;;;;2.01;100.00;101669.09;5114632;28;20062;-36
2022/01/06 02:50:12;;;;;;;10.98;3.13;;;;;;;2.00;100.00;101684.25;5114410;28;20032;-36
2022/01/06 02:52:37;;;;;;;14.13;2.90;;;;;;;1.96;100.00;101679.38;5114654;28;20034;-36
2022/01/06 02:55:05;;;;;;;17.90;3.58;;;;;;;1.96;100.00;101690.88;5114923;28;20459;-36
2022/01/06 02:57:30;;;;;;;20.00;3.40;;;;;;;1.87;100.00;101669.63;5114221;28;20024;-36
2022/01/06 02:59:56;;;;;;;12.93;3.80;;;;;;;1.83;100.00;101666.44;5114236;28;20072;-36
2022/01/06 03:02:21;;;;;;;12.53;2.90;;;;;;;1.87;100.00;101680.31;5114489;28;20063;-36
2022/01/06 03:04:46;;;;;;;15.73;3.50;;;;;;;1.89;100.00;101681.81;5114212;28;20032;-36
2022/01/06 03:07:12;;;;;;;16.20;3.90;;;;;;;1.86;100.00;101682.13;5113792;28;20023;-36
2022/01/06 03:09:39;;;;;;;14.90;3.80;;;;;;;1.80;100.00;101672.88;5113724;28;20023;-36
2022/01/06 03:12:10;;;;;;;15.15;3.55;;;;;;;1.95;100.00;101689.22;5114036;28;20032;-36
2022/01/06 03:14:37;;;;;;;12.02;3.08;;;;;;;1.94;100.00;101692.00;5114026;28;20027;-36
2022/01/06 03:17:03;;;;;;;17.58;3.80;;;;;;;1.89;100.00;101700.47;5113915;28;20055;-36
2022/01/06 03:19:29;;;;;;;17.45;3.97;;;;;;;1.89;100.00;101700.47;5115100;28;20134;-36
2022/01/06 03:21:54;;;;;;;19.87;3.57;;;;;;;1.80;100.00;101688.88;5114661;28;20483;-36
2022/01/06 03:24:20;;;;;;;14.07;3.27;;;;;;;1.84;100.00;101701.94;5113703;28;20110;-36
2022/01/06 03:26:46;;;;;;;15.23;3.58;;;;;;;1.83;100.00;101706.44;5114110;28;20122;-36
2022/01/06 03:29:11;;;;;;;14.88;3.25;;;;;;;1.83;100.00;101701.09;5114349;28;20103;-36
2022/01/06 03:31:36;;;;;;;10.53;2.77;;;;;;;1.78;100.00;101698.88;5113252;28;20124;-36
2022/01/06 03:34:02;;;;;;;19.30;4.53;;;;;;;1.84;100.00;101717.94;5113621;28;20035;-36
2022/01/06 03:36:27;;;;;;;15.77;3.67;;;;;;;1.75;100.00;101701.00;5113519;28;20038;-36
2022/01/06 03:38:52;;;;;;;13.83;3.30;;;;;;;1.87;100.00;101701.63;5113900;28;20040;-36
2022/01/06 03:41:18;;;;;;;16.10;3.67;;;;;;;1.70;100.00;101677.47;5113963;28;20039;-36
2022/01/06 03:43:43;;;;;;;23.90;3.97;;;;;;;1.79;100.00;101694.38;5114334;28;20039;-36
2022/01/06 03:46:08;;;;;;;15.33;3.33;;;;;;;1.83;100.00;101713.59;5113702;28;20379;-36
2022/01/06 03:48:34;;;;;;;17.00;2.67;;;;;;;1.82;100.00;101709.25;5113689;28;20375;-36
2022/01/06 03:50:59;;;;;;;17.30;2.87;;;;;;;1.76;100.00;101681.38;5113348;28;20157;-36
2022/01/06 03:53:25;;;;;;;11.43;2.47;;;;;;;1.88;100.00;101696.13;5113511;28;20059;-36
2022/01/06 03:55:50;;;;;;;13.53;3.10;;;;;;;1.98;100.00;101710.22;5113837;28;20265;-36
2022/01/06 03:58:15;;;;;;;17.23;4.57;;;;;;;1.96;100.00;101701.56;5113669;28;20509;-36
2022/01/06 04:00:40;;;;;;;17.30;3.30;;;;;;;2.03;100.00;101712.44;5113045;28;20123;-36
2022/01/06 04:03:06;;;;;;;15.30;2.70;;;;;;;1.97;100.00;101702.38;5113321;28;20035;-36
2022/01/06 04:05:33;;;;;;;12.93;2.90;;;;;;;1.96;100.00;101693.56;5113315;28;20024;-36
2022/01/06 04:07:59;;;;;;;8.95;2.33;;;;;;;2.09;100.00;101713.66;5113067;28;20368;-36
2022/01/06 04:10:24;;;;;;;14.48;2.47;;;;;;;2.03;100.00;101715.94;5113263;28;20038;-36
2022/01/06 04:12:49;;;;;;;14.73;2.47;;;;;;;2.12;100.00;101716.84;5112973;28;20030;-36
2022/01/06 04:15:15;;;;;;;12.13;2.43;;;;;;;1.93;100.00;101706.34;5112937;28;20028;-36
2022/01/06 04:17:41;;;;;;;12.93;2.17;;;;;;;2.03;100.00;101718.59;5112871;28;20130;-36
2022/01/06 04:20:08;;;;;;;15.05;2.80;;;;;;;1.98;100.00;101717.41;5113231;28;20031;-36
2022/01/06 04:22:34;;;;;;;12.77;1.80;;;;;;;2.00;100.00;101729.59;5113090;28;20463;-36
2022/01/06 04:25:00;;;;;;;14.23;3.13;;;;;;;1.95;100.00;101734.56;5113402;28;20365;-36
2022/01/06 04:27:26;;;;;;;16.17;3.28;;;;;;;1.96;100.00;101728.22;5113047;28;20031;-36
2022/01/06 04:29:51;;;;;;;14.87;3.13;;;;;;;1.88;100.00;101732.66;5113361;28;20036;-36
2022/01/06 04:32:16;;;;;;;12.27;2.27;;;;;;;1.91;99.96;101745.69;5113090;28;20138;-36
2022/01/06 04:34:42;;;;;;;10.00;2.50;;;;;;;1.86;99.97;101742.63;5113342;28;20055;-36
2022/01/06 04:37:07;;;;;;;14.90;3.07;;;;;;;1.85;100.00;101735.59;5112746;28;20039;-36
2022/01/06 04:39:32;;;;;;;16.70;2.93;;;;;;;1.86;100.00;101743.47;5113035;28;20353;-36
2022/01/06 04:41:58;;;;;;;9.47;2.63;;;;;;;1.80;100.00;101736.06;5095189;28;20052;-36
2022/01/06 04:44:23;;;;;;;17.17;3.77;;;;;;;1.74;100.00;101732.19;5117102;28;20024;-36
2022/01/06 04:46:48;;;;;;;19.73;3.40;;;;;;;1.77;99.64;101749.72;5116701;28;20031;-36
2022/01/06 04:49:14;;;;;;;10.93;2.63;;;;;;;1.58;99.62;101720.53;5116951;28;20030;-36
2022/01/06 04:51:39;;;;;;;12.23;2.47;;;;;;;1.69;99.68;101737.13;5116607;28;20020;-36
2022/01/06 04:54:05;;;;;;;15.73;3.83;;;;;;;1.74;99.59;101761.50;5116834;28;20032;-36
2022/01/06 04:56:35;;;;;;;15.30;3.37;;;;;;;1.67;99.46;101746.28;5116510;28;20460;-36
2022/01/06 04:59:02;;;;;;;21.25;3.25;;;;;;;1.72;99.44;101758.16;5116970;28;20122;-36
2022/01/06 05:01:28;;;;;;;16.65;4.05;;;;;;;1.68;99.31;101753.28;5116303;28;20035;-36
2022/01/06 05:03:53;;;;;;;21.90;3.87;;;;;;;1.52;99.58;101736.13;5116760;28;20084;-36
2022/01/06 05:06:18;;;;;;;16.63;3.10;;;;;;;1.64;99.78;101762.56;5116358;28;20028;-36
2022/01/06 05:08:44;;;;;;;22.17;3.37;;;;;;;1.55;99.58;101756.31;5116272;28;20035;-36
2022/01/06 05:11:09;;;;;;;16.27;3.70;;;;;;;1.59;99.64;101773.69;5116170;28;20031;-36
2022/01/06 05:13:34;;;;;;;14.67;2.53;;;;;;;1.49;99.54;101772.91;5116744;28;20027;-36
2022/01/06 05:16:00;;;;;;;13.90;3.07;;;;;;;1.62;100.00;101773.41;5116808;28;20032;-36
2022/01/06 05:18:25;;;;;;;17.13;3.77;;;;;;;1.58;100.00;101777.34;5116662;28;20036;-36
2022/01/06 05:20:50;;;;;;;15.43;3.80;;;;;;;1.53;100.00;101764.47;5115881;28;20028;-36
2022/01/06 05:23:17;;;;;;;16.30;3.00;;;;;;;1.63;100.00;101772.41;5115995;28;20032;-36
2022/01/06 05:25:42;;;;;;;;;;;;;;;1.70;100.00;101781.47;5117062;28;20066;-36
2022/01/06 05:28:07;;;;;;;13.50;2.97;;;;;;;1.62;100.00;101778.72;5116351;28;19912;-36
2022/01/06 05:30:33;;;;;;;9.03;1.87;;;;;;;1.73;100.00;101780.34;5116298;28;20512;-36
2022/01/06 05:32:58;;;;;;;15.87;2.80;;;;;;;1.67;100.00;101784.44;5115963;28;20027;-36
2022/01/06 05:35:23;;;;;;;14.33;2.60;;;;;;;1.59;100.00;101795.00;5116296;28;20024;-36
2022/01/06 05:37:49;;;;;;;9.47;3.17;;;;;;;1.61;100.00;101795.72;5116143;28;20031;-36
2022/01/06 05:40:14;;;;;;;12.43;2.87;;;;;;;1.55;100.00;101804.28;5117057;28;20103;-36
2022/01/06 05:42:41;;;;;;;12.48;2.88;;;;;;;1.44;100.00;101796.50;5115557;28;20074;-36
2022/01/06 05:45:07;;;;;;;12.13;3.03;;;;;;;1.40;100.00;101803.09;5115568;28;20035;-36
2022/01/06 05:47:32;;;;;;;15.48;3.45;;;;;;;1.31;100.00;101806.66;5116159;28;20028;-36
2022/01/06 05:49:58;;;;;;;13.40;4.07;;;;;;;1.32;100.00;101806.53;5115860;28;20352;-36
2022/01/06 05:52:23;;;;;;;10.97;2.37;;;;;;;1.35;100.00;101806.22;5115872;28;20028;-36
2022/01/06 05:54:48;;;;;;;15.00;2.83;;;;;;;1.26;100.00;101812.41;5115083;28;20395;-36
2022/01/06 05:57:15;;;;;;;14.87;3.97;;;;;;;1.20;100.00;101811.19;5097554;28;20027;-36
2022/01/06 05:59:41;;;;;;;13.07;3.33;;;;;;;1.24;100.00;101815.25;5115435;28;20122;-36
2022/01/06 06:02:06;;;;;;;14.68;3.45;;;;;;;1.04;100.00;101808.31;5115603;28;20055;-36
2022/01/06 06:04:32;;;;;;;15.77;3.27;;;;;;;1.10;100.00;101825.53;5097309;28;20146;-36
2022/01/06 06:06:58;;;;;;;13.10;2.83;;;;;;;1.15;100.00;101826.78;5114939;28;20037;-36
2022/01/06 06:09:23;;;;;;;15.40;3.37;;;;;;;1.13;100.00;101828.75;5114774;28;20036;-36
2022/01/06 06:11:48;;;;;;;15.70;3.10;;;;;;;1.20;100.00;101829.84;5114693;28;20066;-36
2022/01/06 06:14:14;;;;;;;17.53;2.80;;;;;;;1.21;100.00;101826.19;5115249;28;20023;-36
2022/01/06 06:16:39;;;;;;;11.57;3.20;;;;;;;1.15;100.00;101828.59;5114849;28;20027;-36
2022/01/06 06:19:04;;;;;;;11.43;3.03;;;;;;;1.14;100.00;101846.41;5115621;28;20052;-36
2022/01/06 06:21:30;;;;;;;13.23;2.80;;;;;;;1.21;100.00;101842.16;5114898;28;20455;-36
2022/01/06 06:23:55;;;;;;;10.00;3.07;;;;;;;0.98;100.00;101819.53;5114873;28;20036;-36
2022/01/06 06:26:21;;;;;;;11.53;2.90;;;;;;;1.23;100.00;101845.53;5114808;28;20062;-36
2022/01/06 06:28:46;;;;;;;17.20;3.33;;;;;;;1.14;100.00;101850.91;5115062;28;20452;-36
2022/01/06 06:31:11;;;;;;;16.87;3.83;;;;;;;1.18;100.00;101845.13;5114845;28;20024;-36
2022/01/06 06:33:37;;;;;;;13.03;3.50;;;;;;;0.97;100.00;101841.81;5115424;28;20043;-36
2022/01/06 06:36:02;;;;;;;10.33;2.50;;;;;;;1.14;100.00;101853.56;5114833;28;20023;-36
2022/01/06 06:38:28;;;;;;;13.43;2.72;;;;;;;1.10;100.00;101852.16;5114161;28;20028;-36
2022/01/06 06:40:53;;;;;;;15.35;2.75;;;;;;;1.06;100.00;101854.28;5114713;28;20082;-36
2022/01/06 06:43:19;;;;;;;11.93;2.70;;;;;;;0.98;100.00;101844.34;5114480;28;20027;-36
2022/01/06 06:45:44;;;;;;;17.40;3.90;;;;;;;0.93;100.00;101849.28;5114731;28;20020;-36
2022/01/06 06:48:11;;;;;;;11.07;3.40;;;;;;;1.03;100.00;101865.22;5114404;28;20055;-36
2022/01/06 06:50:37;;;;;;;13.63;3.35;;;;;;;0.92;100.00;101868.88;5095688;28;20039;-36
2022/01/06 06:53:02;;;;;;;8.07;2.50;;;;;;;1.02;100.00;101880.38;5114527;28;20166;-36
2022/01/06 06:55:28;;;;;;;14.82;3.20;;;;;;;1.06;100.00;101883.56;5114034;28;20028;-36
2022/01/06 06:57:53;;;;;;;11.15;3.30;;;;;;;1.11;100.00;101883.97;5114094;28;20112;-36
2022/01/06 07:00:19;;;;;;;13.13;3.80;;;;;;;1.10;100.00;101881.47;5115018;28;20024;-36
2022/01/06 07:02:44;;;;;;;13.47;4.53;;;;;;;1.03;100.00;101883.88;5114035;28;20126;-36
2022/01/06 07:05:09;;;;;;;16.40;2.93;;;;;;;1.03;100.00;101884.72;5114698;28;20062;-36
2022/01/06 07:07:35;;;;;;;14.27;3.33;;;;;;;1.04;100.00;101880.22;5114066;28;20378;-36
2022/01/06 07:10:01;;;;;;;21.23;4.10;;;;;;;1.12;100.00;101896.31;5096585;28;20020;-36
2022/01/06 07:12:26;;;;;;;14.98;3.97;;;;;;;1.16;100.00;101892.38;5113780;28;20062;-36
2022/01/06 07:14:52;;;;;;;13.33;3.20;;;;;;;1.13;100.00;101897.19;5114091;28;20028;-36
2022/01/06 07:17:17;;;;;;;15.35;3.72;;;;;;;0.92;100.00;101886.69;5113421;28;20435;-36
2022/01/06 07:19:43;;;;;;;11.20;3.37;;;;;;;0.92;100.00;101898.16;5114375;28;20042;-36
2022/01/06 07:22:08;;;;;;;19.67;4.00;;;;;;;0.83;100.00;101893.72;5114118;28;20414;-36
2022/01/06 07:24:34;;;;;;;10.77;3.13;;;;;;;0.98;100.00;101902.94;5114027;28;20476;-36
2022/01/06 07:27:00;;;;;;;15.15;3.50;;;;;;;1.02;100.00;101920.34;5113672;28;20031;-36
2022/01/06 07:29:27;;;;;;;15.23;4.05;;;;;;;1.08;100.00;101923.41;5114397;28;20032;-36
2022/01/06 07:31:52;;;;;;;17.10;4.28;;;;;;;1.09;100.00;101925.09;5113472;28;20062;-36
2022/01/06 07:34:18;;;;;;;12.40;3.53;;;;;;;1.06;100.00;101928.84;5114383;28;20066;-36
2022/01/06 07:36:43;;;;;;;12.98;3.83;;;;;;;1.19;100.00;101916.09;5113464;28;20419;-36
2022/01/06 07:39:09;;;;;;;14.07;3.93;;;;;;;1.14;100.00;101926.34;5114285;28;20024;-36
2022/01/06 07:41:34;;;;;;;11.63;3.80;;;;;;;1.06;100.00;101931.53;5113396;28;20034;-36
2022/01/06 07:44:00;;;;;;;15.23;4.07;;;;;;;1.21;100.00;101930.09;5113188;28;20023;-36
2022/01/06 07:46:25;;;;;;;14.15;4.25;;;;;;;1.01;100.00;101928.44;5113633;28;20027;-36
2022/01/06 07:48:59;;;;;;;12.40;4.20;;;;;;;1.08;100.00;101931.41;5113690;28;20038;-36
2022/01/06 07:51:27;;;;;;;13.55;4.30;;;;;;;1.15;100.00;101925.34;5113295;28;20020;-36
2022/01/06 07:53:52;;;;;;;10.48;3.80;;;;;;;0.87;100.00;101867.63;5113379;28;20080;-36
2022/01/06 07:56:18;;;;;;;18.55;3.90;;;;;;;1.16;100.00;101929.69;5113776;28;20456;-36
2022/01/06 07:58:44;;;;;;;16.95;4.25;;;;;;;1.11;100.00;101925.78;5113876;28;20061;-36
2022/01/06 08:01:10;;;;;;;14.40;3.70;;;;;;;1.08;100.00;101931.41;5113265;28;20035;-36
2022/01/06 08:03:36;;;;;;;13.60;4.05;;;;;;;1.02;100.00;101931.00;5113519;28;20057;-36
2022/01/06 08:06:01;;;;;;;10.23;3.73;;;;;;;1.12;100.00;101930.94;5114069;28;20435;-36
2022/01/06 08:08:26;;;;;;;14.40;3.57;;;;;;;1.11;100.00;101928.44;5113515;28;20031;-36
2022/01/06 08:10:52;;;;;;;10.17;3.43;;;;;;;1.00;100.00;101918.78;5094778;28;20494;-36
2022/01/06 08:13:17;;;;;;;17.40;4.77;;;;;;;1.10;100.00;101932.94;5095292;28;20501;-36
2022/01/06 08:15:42;;;;;;;14.70;4.03;;;;;;;1.05;100.00;101940.50;5113484;28;20032;-36
2022/01/06 08:18:08;;;;;;;9.87;3.73;;;;;;;0.97;100.00;101927.03;5116341;28;20123;-36
2022/01/06 08:20:35;;;;;;;11.60;4.37;;;;;;;1.09;100.00;101933.06;5117881;28;20110;-36
2022/01/06 08:23:01;;;;;;;14.25;4.82;;;;;;;1.15;100.00;101937.81;5117126;28;20032;-36
2022/01/06 08:25:27;;;;;;;13.65;4.80;;;;;;;1.16;100.00;101937.69;5099487;28;20093;-36
2022/01/06 08:27:52;;;;;;;11.20;3.57;;;;;;;1.38;100.00;101947.19;5116705;28;20032;-36
2022/01/06 08:30:17;;;;;;;12.70;3.90;;;;;;;1.21;100.00;101947.91;5117053;28;20024;-36
2022/01/06 08:32:43;;;;;;;10.90;4.03;;;;;;;1.20;100.00;101941.75;5116864;28;20419;-36
2022/01/06 08:35:08;;;;;;;12.70;3.93;;;;;;;1.15;100.00;101924.50;5117464;28;20024;-36
2022/01/06 08:37:34;;;;;;;17.70;5.10;;;;;;;1.08;100.00;101934.91;5116902;28;20482;-36
2022/01/06 08:39:59;;;;;;;18.33;5.07;;;;;;;1.15;100.00;101944.00;5117148;28;20490;-36
2022/01/06 08:42:25;;;;;;;14.83;4.30;;;;;;;1.15;100.00;101949.31;5117496;28;20026;-36
2022/01/06 08:44:50;;;;;;;14.97;3.77;;;;;;;1.20;100.00;101955.06;5117004;28;20487;-36
2022/01/06 08:47:16;;;;;;;14.10;3.73;;;;;;;1.14;100.00;101960.97;5116654;28;20531;-36
2022/01/06 08:49:42;;;;;;;18.60;4.53;;;;;;;1.13;100.00;101961.97;5117038;28;20047;-36
2022/01/06 08:52:08;;;;;;;19.98;4.50;;;;;;;1.02;100.00;101948.78;5116869;28;20498;-36
2022/01/06 08:54:33;;;;;;;14.68;4.03;;;;;;;1.22;100.00;101960.25;5116847;28;20114;-36
2022/01/06 08:56:59;;;;;;;14.63;4.00;;;;;;;1.22;100.00;101955.78;5116743;28;20023;-36
2022/01/06 08:59:24;;;;;;;14.50;4.00;;;;;;;1.27;100.00;101958.84;5116823;28;20035;-36
2022/01/06 09:01:49;;;;;;;14.37;4.00;;;;;;;1.39;100.00;101958.69;5098034;28;20285;-36
2022/01/06 09:04:17;;;;;;;17.30;4.90;;;;;;;1.41;100.00;101968.19;5116797;28;20080;-36
2022/01/06 09:06:43;;;;;;;16.05;4.93;;;;;;;1.29;100.00;101942.72;5115984;28;20035;-36
2022/01/06 09:09:08;;;;;;;18.07;4.17;;;;;;;1.50;100.00;101972.66;5116318;28;20028;-36
2022/01/06 09:11:33;;;;;;;16.57;4.47;;;;;;;1.54;100.00;101975.91;5116230;28;20028;-36
2022/01/06 09:13:59;;;;;;;17.93;4.77;;;;;;;1.63;100.00;101980.38;5116669;28;20035;-36
2022/01/06 09:16:24;;;;;;;16.30;4.03;;;;;;;1.72;100.00;101984.00;5115786;28;20388;-36
2022/01/06 09:18:49;;;;;;;17.63;4.10;;;;;;;1.72;100.00;101984.84;5116562;28;20240;-36
2022/01/06 09:21:16;;;;;;;10.87;4.03;;;;;;;1.61;100.00;101952.16;5116217;28;20360;-36
2022/01/06 09:23:42;;;;;;;12.88;3.78;;;;;;;1.74;100.00;101979.34;5115726;28;20051;-36
2022/01/06 09:26:07;;;;;;;18.97;4.90;;;;;;;1.88;100.00;101991.38;5116529;28;20143;-36
2022/01/06 09:28:33;;;;;;;13.67;4.30;;;;;;;1.93;100.00;101989.94;5114618;28;20391;-36
2022/01/06 09:30:58;;;;;;;12.13;4.00;;;;;;;2.03;100.00;101993.41;5115492;28;20293;-36
2022/01/06 09:33:24;;;;;;;16.87;4.03;;;;;;;2.08;100.00;101997.47;5116187;28;20069;-36
2022/01/06 09:35:52;;;;;;;12.35;3.60;;;;;;;2.10;100.00;102004.34;5116325;28;20100;-36
2022/01/06 09:38:18;;;;;;;13.07;3.50;;;;;;;2.22;100.00;102003.16;5115938;28;20412;-36
2022/01/06 09:40:44;;;;;;;16.73;3.97;;;;;;;2.29;100.00;102003.41;5115923;28;20106;-36
2022/01/06 09:43:12;;;;;;;15.02;3.60;;;;;;;2.46;100.00;102007.13;5115363;28;20047;-36
2022/01/06 09:45:38;;;;;;;16.83;3.70;;;;;;;2.41;100.00;102007.56;5115293;28;20106;-36
2022/01/06 09:48:05;;;;;;;12.32;3.95;;;;;;;2.46;100.00;102007.13;5115488;28;20039;-36
2022/01/06 09:50:30;;;;;;;12.90;3.72;;;;;;;2.49;100.00;102010.34;5115400;28;20023;-36
2022/01/06 09:52:55;;;;;;;11.85;3.80;;;;;;;2.48;100.00;102003.28;5115134;28;20030;-36
2022/01/06 09:55:21;;;;;;;18.70;3.57;;;;;;;2.62;100.00;102007.28;5097114;28;20039;-36
2022/01/06 09:57:57;;;;;;;13.50;3.80;;;;;;;2.75;100.00;102012.28;5115036;28;20111;-36
2022/01/06 10:00:24;;;;;;;13.13;3.60;;;;;;;2.66;100.00;101991.81;5115837;28;20258;-36
2022/01/06 10:02:55;;;;;;;10.57;3.55;;;;;;;2.86;100.00;102008.53;5115392;28;20388;-36
2022/01/06 10:05:20;;;;;;;15.68;3.58;;;;;;;2.92;100.00;101999.91;5114998;28;20031;-35
2022/01/06 10:07:45;;;;;;;14.90;3.67;;;;;;;3.03;100.00;102005.03;5115151;28;20089;-36
2022/01/06 10:10:14;;;;;;;17.23;4.40;;;;;;;2.99;100.00;102009.00;5115394;28;20027;-35
2022/01/06 10:12:40;;;;;;;18.30;4.78;;;;;;;3.07;100.00;102017.09;5114699;28;20023;-35
2022/01/06 10:15:20;;;;;;;17.55;4.30;;;;;;;3.14;100.00;102002.13;5114851;28;20027;-35
2022/01/06 10:17:46;;;;;;;15.98;4.10;;;;;;;3.14;99.86;102007.47;5115048;28;20063;-35
2022/01/06 10:20:13;;;;;;;;;;;;;;;3.26;100.00;102005.38;5115315;28;20035;-35
2022/01/06 10:22:49;;;;;;;16.50;4.50;;;;;;;3.20;99.04;102008.69;5115076;28;19965;-35
2022/01/06 10:25:16;;;;;;;20.47;5.03;;;;;;;3.23;99.13;101998.53;5115084;28;20024;-35
2022/01/06 10:27:41;;;;;;;14.02;3.53;;;;;;;3.37;99.76;102005.16;5114681;28;20031;-35
2022/01/06 10:30:08;;;;;;;11.10;3.53;;;;;;;3.35;99.24;101997.28;5115221;28;20038;-35
2022/01/06 10:32:35;;;;;;;17.45;4.43;;;;;;;3.33;98.13;101996.59;5115008;28;20097;-35
2022/01/06 10:35:03;;;;;;;9.63;3.67;;;;;;;3.37;98.00;101994.47;5115568;28;20058;-35
2022/01/06 10:37:38;;;;;;;17.73;4.78;;;;;;;3.46;99.15;101992.66;5114378;28;20027;-35
2022/01/06 10:40:09;;;;;;;12.57;4.10;;;;;;;3.50;98.82;101981.50;5115113;28;20036;-35
2022/01/06 10:42:37;;;;;;;16.13;4.30;;;;;;;3.67;99.09;101993.16;5114703;28;20050;-35
2022/01/06 10:45:08;;;;;;;11.30;3.65;;;;;;;3.61;97.42;101996.44;5114712;28;20485;-35
2022/01/06 10:47:48;;;;;;;17.75;4.30;;;;;;;3.59;98.24;101988.59;5114422;28;20164;-35
2022/01/06 10:50:19;;;;;;;12.77;4.10;;;;;;;3.75;97.86;101995.88;5114298;28;20039;-36
2022/01/06 10:52:50;;;;;;;17.20;4.30;;;;;;;3.77;96.60;101988.53;5114557;28;20024;-35
2022/01/06 10:55:16;;;;;;;17.42;4.35;;;;;;;3.85;96.99;101998.44;5114224;28;20028;-35
2022/01/06 10:57:53;;;;;;;17.52;4.60;;;;;;;3.82;96.70;101996.94;5114138;28;20034;-35
2022/01/06 11:00:20;;;;;;;11.23;3.47;;;;;;;3.70;95.56;101984.81;5114300;28;20035;-35
2022/01/06 11:02:45;;;;;;;14.65;4.05;;;;;;;3.72;95.84;101990.84;5114263;28;20106;-35
2022/01/06 11:05:11;;;;;;;12.25;3.78;;;;;;;3.71;96.24;101982.97;5113946;28;20059;-35
2022/01/06 11:07:36;;;;;;;13.53;4.07;;;;;;;3.65;96.44;101986.28;5113940;28;20105;-35
2022/01/06 11:10:15;;;;;;;11.33;4.07;;;;;;;3.66;97.05;101988.81;5113638;28;20024;-35
2022/01/06 11:12:41;;;;;;;23.10;4.60;;;;;;;3.69;96.87;101985.81;5114228;28;20058;-35
2022/01/06 11:15:08;;;;;;;15.10;3.63;;;;;;;3.54;96.86;101945.44;5114322;28;20023;-35
2022/01/06 11:17:34;;;;;;;9.65;4.13;;;;;;;3.83;96.22;101982.56;5113726;28;20360;-35
2022/01/06 11:20:00;;;;;;;12.88;4.15;;;;;;;3.85;96.44;101974.34;5114580;28;20054;-35
2022/01/06 11:22:26;;;;;;;11.95;4.50;;;;;;;3.85;96.41;101963.66;5113939;28;20391;-36
2022/01/06 11:24:54;;;;;;;12.45;3.65;;;;;;;4.00;96.37;101977.28;5113659;28;20053;-36